createdAt,value
2022-10-03T00:00:16.157Z,21.67
2022-10-03T00:02:55.160Z,21.13
2022-10-03T00:05:35.008Z,19.20
2022-10-03T00:08:05.244Z,19.77
2022-10-03T00:10:38.735Z,14.95
2022-10-03T00:13:13.926Z,16.23
2022-10-03T00:15:59.437Z,14.55
2022-10-03T00:18:26.543Z,15.38
2022-10-03T00:21:18.085Z,15.80
2022-10-03T00:23:48.496Z,13.13
2022-10-03T00:26:39.875Z,13.55
2022-10-03T00:29:10.334Z,11.65
2022-10-03T00:31:56.352Z,14.02
2022-10-03T00:34:23.687Z,18.63
2022-10-03T00:36:50.774Z,14.80
2022-10-03T00:39:17.891Z,17.15
2022-10-03T00:42:13.603Z,13.65
2022-10-03T00:44:54.700Z,14.50
2022-10-03T00:47:24.331Z,15.70
2022-10-03T00:49:54.772Z,16.58
2022-10-03T00:52:51.055Z,13.30
2022-10-03T00:55:36.073Z,13.25
2022-10-03T00:58:23.609Z,12.52
2022-10-03T01:00:53.631Z,19.25
2022-10-03T01:03:26.088Z,15.25
2022-10-03T01:06:14.943Z,14.15
2022-10-03T01:08:59.472Z,14.93
2022-10-03T01:11:47.874Z,11.63
2022-10-03T01:14:28.785Z,13.68
2022-10-03T01:17:16.070Z,12.13
2022-10-03T01:19:59.594Z,11.23
2022-10-03T01:22:41.266Z,11.52
2022-10-03T01:25:33.360Z,14.27
2022-10-03T01:28:32.177Z,14.23
2022-10-03T01:31:05.131Z,14.57
2022-10-03T01:33:44.859Z,15.80
2022-10-03T01:36:29.227Z,19.00
2022-10-03T01:39:08.957Z,11.57
2022-10-03T01:42:00.536Z,15.90
2022-10-03T01:44:30.646Z,14.27
2022-10-03T01:47:14.452Z,16.33
2022-10-03T01:49:49.216Z,14.68
2022-10-03T01:52:22.305Z,15.75
2022-10-03T01:55:07.323Z,14.25
2022-10-03T01:57:46.778Z,13.02
2022-10-03T02:00:16.709Z,12.20
2022-10-03T02:02:51.729Z,14.27
2022-10-03T02:05:24.585Z,16.40
2022-10-03T02:08:04.181Z,15.45
2022-10-03T02:10:53.026Z,15.55
2022-10-03T02:13:25.188Z,13.90
2022-10-03T02:16:07.112Z,15.00
2022-10-03T02:18:52.776Z,18.13
2022-10-03T02:21:24.846Z,12.48
2022-10-03T02:24:30.458Z,16.83
2022-10-03T02:27:05.615Z,18.73
2022-10-03T02:33:23.954Z,15.55
2022-10-03T02:36:32.984Z,13.05
2022-10-03T02:39:12.146Z,16.42
2022-10-03T02:41:52.555Z,16.90
2022-10-03T02:47:32.597Z,14.73
2022-10-03T02:50:02.907Z,17.67
2022-10-03T02:52:30.004Z,19.83
2022-10-03T02:55:08.970Z,26.75
2022-10-03T02:57:36.174Z,14.00
2022-10-03T03:00:21.116Z,15.85
2022-10-03T03:02:54.831Z,24.92
2022-10-03T03:05:24.745Z,24.83
2022-10-03T03:07:51.865Z,22.80
2022-10-03T03:10:25.216Z,22.15
2022-10-03T03:13:15.398Z,35.00
2022-10-03T03:16:03.497Z,30.42
2022-10-03T03:18:52.369Z,24.85
2022-10-03T03:21:28.924Z,18.75
2022-10-03T03:24:09.117Z,30.38
2022-10-03T03:26:47.256Z,17.92
2022-10-03T03:29:41.107Z,18.17
2022-10-03T03:32:08.316Z,22.35
2022-10-03T03:34:50.910Z,12.93
2022-10-03T03:37:24.213Z,21.60
2022-10-03T03:40:02.594Z,13.10
2022-10-03T03:42:48.974Z,24.25
2022-10-03T03:45:35.072Z,32.85
2022-10-03T03:48:05.684Z,22.70
2022-10-03T03:50:42.356Z,21.52
2022-10-03T03:53:33.243Z,25.13
2022-10-03T03:56:25.906Z,19.45
2022-10-03T03:59:02.192Z,20.73
2022-10-03T04:01:29.600Z,21.63
2022-10-03T04:04:15.754Z,13.15
2022-10-03T04:06:43.572Z,14.50
2022-10-03T04:09:18.238Z,17.63
2022-10-03T04:11:54.562Z,17.17
2022-10-03T04:14:43.152Z,17.60
2022-10-03T04:17:32.375Z,16.77
2022-10-03T04:20:18.027Z,16.33
2022-10-03T04:23:09.730Z,20.98
2022-10-03T04:25:50.090Z,24.40
2022-10-03T04:28:38.466Z,19.10
2022-10-03T04:31:24.210Z,17.95
2022-10-03T04:34:15.449Z,17.70
2022-10-03T04:36:54.939Z,17.05
2022-10-03T04:39:43.543Z,20.70
2022-10-03T04:42:24.056Z,19.20
2022-10-03T04:45:09.790Z,21.23
2022-10-03T04:47:45.697Z,16.92
2022-10-03T04:50:12.753Z,15.23
2022-10-03T04:52:43.785Z,16.80
2022-10-03T04:55:15.119Z,24.35
2022-10-03T04:57:42.673Z,19.63
2022-10-03T05:00:30.255Z,17.10
2022-10-03T05:02:57.362Z,21.08
2022-10-03T05:05:27.745Z,18.50
2022-10-03T05:08:15.811Z,29.75
2022-10-03T05:10:42.945Z,17.90
2022-10-03T05:13:24.973Z,18.02
2022-10-03T05:15:52.269Z,16.25
2022-10-03T05:18:35.226Z,16.48
2022-10-03T05:21:08.689Z,21.63
2022-10-03T05:23:57.404Z,15.13
2022-10-03T05:26:45.443Z,12.90
2022-10-03T05:29:39.700Z,16.67
2022-10-03T05:32:25.618Z,11.43
2022-10-03T05:35:03.294Z,18.73
2022-10-03T05:37:42.683Z,12.77
2022-10-03T05:40:29.606Z,15.65
2022-10-03T05:43:02.856Z,13.00
2022-10-03T05:45:31.673Z,15.43
2022-10-03T05:48:03.442Z,12.40
2022-10-03T05:50:49.126Z,21.40
2022-10-03T05:53:35.122Z,18.60
2022-10-03T05:56:05.991Z,20.55
2022-10-03T05:58:51.670Z,19.67
2022-10-03T06:01:31.008Z,23.48
2022-10-03T06:04:07.851Z,26.77
2022-10-03T06:06:44.565Z,24.73
2022-10-03T06:09:24.629Z,18.95
2022-10-03T06:12:02.952Z,20.50
2022-10-03T06:14:34.858Z,20.75
2022-10-03T06:17:14.221Z,27.95
2022-10-03T06:19:44.604Z,33.25
2022-10-03T06:22:30.491Z,40.22
2022-10-03T06:25:24.591Z,36.97
2022-10-03T06:28:13.205Z,34.22
2022-10-03T06:30:59.131Z,42.17
2022-10-03T06:33:45.292Z,31.60
2022-10-03T06:36:19.664Z,44.35
2022-10-03T06:38:53.046Z,28.50
2022-10-03T06:41:39.176Z,21.15
2022-10-03T06:44:14.290Z,40.15
2022-10-03T06:47:04.029Z,1999.90
2022-10-03T06:49:45.331Z,1914.70
2022-10-03T06:52:31.183Z,1999.90
2022-10-03T06:55:04.845Z,1567.47
2022-10-03T06:57:47.628Z,31.40
2022-10-03T07:00:27.162Z,24.40
2022-10-03T07:03:19.181Z,13.25
2022-10-03T07:06:10.787Z,15.90
2022-10-03T07:08:40.774Z,8.90
2022-10-03T07:11:07.974Z,10.07
2022-10-03T07:13:56.051Z,13.38
2022-10-03T07:16:36.581Z,7.93
2022-10-03T07:19:29.439Z,13.07
2022-10-03T07:22:24.669Z,9.70
2022-10-03T07:24:58.154Z,13.15
2022-10-03T07:27:51.309Z,11.57
2022-10-03T07:30:22.511Z,13.15
2022-10-03T07:32:55.640Z,10.82
2022-10-03T07:36:00.102Z,10.63
2022-10-03T07:39:01.026Z,16.05
2022-10-03T07:41:57.481Z,13.75
2022-10-03T07:44:37.089Z,14.68
2022-10-03T07:47:12.207Z,16.77
2022-10-03T07:50:00.716Z,13.05
2022-10-03T07:53:08.705Z,11.55
2022-10-03T07:55:55.167Z,16.35
2022-10-03T07:58:31.546Z,9.27
2022-10-03T09:48:32.339Z,12.43
2022-10-03T09:51:18.275Z,14.05
2022-10-03T09:57:59.349Z,10.15
2022-10-03T10:04:53.819Z,10.90
2022-10-03T10:08:03.251Z,12.93
2022-10-03T10:11:07.512Z,13.05
2022-10-03T10:14:09.560Z,11.52
2022-10-03T10:20:58.390Z,11.25
2022-10-03T10:32:23.968Z,10.82
2022-10-03T10:38:25.345Z,17.70
2022-10-03T10:41:51.131Z,13.23
2022-10-03T10:48:32.009Z,11.02
2022-10-03T10:51:41.483Z,12.07
2022-10-03T10:58:13.776Z,13.00
2022-10-03T11:05:04.061Z,10.50
2022-10-03T11:07:54.121Z,16.25
2022-10-03T11:10:56.895Z,8.55
2022-10-03T11:13:49.137Z,11.27
2022-10-03T11:20:10.318Z,13.32
2022-10-03T11:23:23.403Z,12.02
2022-10-03T11:30:34.684Z,11.05
2022-10-03T11:36:56.416Z,8.02
2022-10-03T11:39:35.833Z,8.55
2022-10-03T11:42:48.216Z,10.23
2022-10-03T11:45:39.828Z,10.75
2022-10-03T11:49:11.386Z,8.55
2022-10-03T11:52:32.822Z,9.15
2022-10-03T12:01:37.934Z,9.45
2022-10-03T12:03:16.753Z,6.13
2022-10-03T12:07:24.161Z,4.68
2022-10-03T12:13:42.922Z,4.05
2022-10-03T12:20:31.130Z,7.20
2022-10-03T12:24:06.997Z,4.30
2022-10-03T12:33:23.741Z,6.55
2022-10-03T12:36:45.745Z,4.85
2022-10-03T12:40:12.444Z,11.57
2022-10-03T12:42:52.270Z,8.85
2022-10-03T12:46:06.862Z,3.40
2022-10-03T12:49:41.099Z,5.85
2022-10-03T12:52:37.730Z,6.78
2022-10-03T12:55:35.330Z,13.48
2022-10-03T12:58:56.392Z,9.43
2022-10-03T13:02:17.013Z,6.53
2022-10-03T13:05:12.677Z,8.45
2022-10-03T13:08:12.364Z,10.25
2022-10-03T13:14:01.773Z,7.88
2022-10-03T13:21:26.655Z,8.27
2022-10-03T13:25:06.652Z,5.72
2022-10-03T13:28:45.104Z,9.40
2022-10-03T13:42:55.118Z,6.18
2022-10-03T14:10:53.559Z,8.38
2022-10-03T14:16:38.688Z,13.45
2022-10-03T14:19:54.569Z,8.15
2022-10-03T14:26:00.362Z,8.43
2022-10-03T14:28:40.178Z,5.25
2022-10-03T14:31:20.883Z,5.70
2022-10-03T14:34:10.905Z,8.85
2022-10-03T14:36:52.259Z,9.50
2022-10-03T14:39:32.472Z,4.93
2022-10-03T14:42:36.672Z,3.88
2022-10-03T14:45:18.805Z,7.22
2022-10-03T14:47:53.087Z,4.05
2022-10-03T14:50:25.519Z,4.93
2022-10-03T14:53:04.733Z,6.90
2022-10-03T14:55:51.539Z,7.88
2022-10-03T14:58:32.646Z,4.75
2022-10-03T15:01:13.074Z,7.18
2022-10-03T15:03:57.213Z,3.58
2022-10-03T15:06:46.554Z,2.30
2022-10-03T16:32:45.729Z,9.77
2022-10-03T16:36:07.815Z,10.25
2022-10-03T18:14:32.625Z,25.33
2022-10-03T18:17:17.204Z,24.17
2022-10-03T18:19:50.551Z,29.20
2022-10-03T18:22:17.741Z,29.80
2022-10-03T18:24:59.971Z,22.75
2022-10-03T18:27:30.453Z,28.80
2022-10-03T18:30:05.818Z,27.38
2022-10-03T18:32:36.062Z,26.23
2022-10-03T18:35:10.823Z,24.80
2022-10-03T18:37:40.900Z,29.52
2022-10-03T18:40:34.568Z,30.02
2022-10-03T18:43:01.757Z,29.63
2022-10-03T18:45:31.361Z,29.67
2022-10-03T18:48:16.245Z,26.77
2022-10-03T18:50:54.872Z,32.13
2022-10-03T18:53:37.979Z,35.40
2022-10-03T18:56:12.551Z,31.85
2022-10-03T18:58:39.715Z,39.13
2022-10-03T19:01:11.947Z,44.53
2022-10-03T19:03:40.472Z,37.67
2022-10-03T19:06:19.363Z,41.50
2022-10-03T19:08:51.802Z,36.20
2022-10-03T19:11:18.893Z,30.65
2022-10-03T19:13:54.059Z,33.30
2022-10-03T19:16:42.945Z,32.65
2022-10-03T19:19:19.442Z,33.55
2022-10-03T19:21:47.979Z,31.65
2022-10-03T19:24:18.608Z,26.77
2022-10-03T19:26:47.851Z,26.80
2022-10-03T19:29:16.677Z,31.83
2022-10-03T19:31:56.075Z,29.60
2022-10-03T19:34:32.453Z,35.05
2022-10-03T19:37:00.457Z,32.45
2022-10-03T19:39:29.397Z,39.00
2022-10-03T19:41:59.221Z,42.13
2022-10-03T19:44:27.255Z,39.45
2022-10-03T19:47:23.783Z,39.28
2022-10-03T19:49:57.084Z,37.85
2022-10-03T19:52:29.088Z,36.60
2022-10-03T19:55:09.236Z,37.47
2022-10-03T19:58:04.083Z,35.67
2022-10-03T20:00:39.115Z,35.05
2022-10-03T20:03:23.055Z,35.42
2022-10-03T20:06:18.672Z,39.35
2022-10-03T20:09:06.016Z,35.05
2022-10-03T20:11:57.236Z,31.08
2022-10-03T20:14:29.010Z,33.20
2022-10-03T20:17:03.003Z,28.67
2022-10-03T20:19:41.662Z,36.65
2022-10-03T20:22:12.590Z,31.38
2022-10-03T20:24:45.246Z,32.30
2022-10-03T20:30:35.778Z,27.48
2022-10-03T20:33:03.891Z,35.10
2022-10-03T20:35:49.615Z,34.03
2022-10-03T20:38:38.111Z,38.60
2022-10-03T20:41:27.293Z,38.40
2022-10-03T20:44:15.815Z,34.90
2022-10-03T20:46:54.030Z,39.60
2022-10-03T20:49:34.272Z,39.95
2022-10-03T20:52:07.429Z,42.05
2022-10-03T20:54:49.189Z,38.75
2022-10-03T20:57:24.072Z,43.13
2022-10-03T21:00:21.107Z,42.10
2022-10-03T21:02:57.002Z,42.83
2022-10-03T21:05:48.621Z,40.58
2022-10-03T21:08:20.785Z,33.70
2022-10-03T21:10:54.680Z,40.80
2022-10-03T21:13:33.676Z,40.63
2022-10-03T21:16:03.143Z,42.75
2022-10-03T21:18:37.042Z,50.55
2022-10-03T21:21:19.498Z,59.17
2022-10-03T21:23:52.535Z,53.38
2022-10-03T21:26:29.949Z,45.58
2022-10-03T21:29:17.104Z,40.40
2022-10-03T21:31:59.290Z,43.72
2022-10-03T21:34:33.877Z,43.25
2022-10-03T21:37:14.266Z,41.28
2022-10-03T21:40:21.858Z,38.45
2022-10-03T21:43:31.641Z,40.03
2022-10-03T21:46:07.247Z,39.15
2022-10-03T21:49:25.501Z,33.55
2022-10-03T21:52:26.951Z,32.78
2022-10-03T21:55:04.722Z,34.63
2022-10-03T21:58:02.516Z,30.77
2022-10-03T22:00:48.308Z,27.50
2022-10-03T22:03:29.144Z,39.97
2022-10-03T22:06:21.971Z,39.95
2022-10-03T22:13:34.442Z,50.25
2022-10-03T22:16:10.884Z,48.17
2022-10-03T22:19:13.139Z,46.28
2022-10-03T22:22:00.264Z,43.20
2022-10-03T22:24:44.798Z,41.78
2022-10-03T22:27:31.005Z,30.90
2022-10-03T22:30:10.307Z,33.92
2022-10-03T22:33:04.284Z,27.33
2022-10-03T22:35:37.093Z,29.83
2022-10-03T22:38:04.282Z,31.58
2022-10-03T22:40:32.532Z,32.53
2022-10-03T22:43:03.376Z,31.73
2022-10-03T22:45:33.709Z,25.17
2022-10-03T22:48:05.471Z,27.88
2022-10-03T22:50:35.023Z,23.25
2022-10-03T22:53:03.464Z,29.33
2022-10-03T22:55:31.509Z,24.20
2022-10-03T22:58:01.128Z,26.38
2022-10-03T23:00:33.183Z,26.42
2022-10-03T23:03:08.315Z,28.15
2022-10-03T23:09:28.223Z,31.23
2022-10-03T23:11:57.456Z,20.08
2022-10-03T23:14:28.924Z,26.58
2022-10-03T23:17:20.075Z,28.08
2022-10-03T23:20:03.880Z,30.48
2022-10-03T23:22:34.812Z,26.75
2022-10-03T23:25:55.702Z,25.70
2022-10-03T23:28:36.378Z,25.42
2022-10-03T23:31:17.253Z,25.92
2022-10-03T23:33:43.962Z,23.15
2022-10-03T23:36:19.386Z,22.00
2022-10-03T23:38:46.005Z,19.50
2022-10-03T23:41:41.964Z,25.73
2022-10-03T23:44:31.728Z,22.08
2022-10-03T23:47:01.214Z,21.95
2022-10-03T23:50:23.177Z,23.40
2022-10-03T23:52:56.517Z,26.10
2022-10-03T23:55:28.457Z,21.67
2022-10-03T23:57:55.628Z,22.27
